TAF Text Data
IDs:
Format:
Raw Decoded Include METAR

Data at: 2058 UTC 31 Jan 2023

KTYS 312053Z 00000KT 1 1/4SM -RA BR BKN005 OVC014 07/06 A3012 RMK AO2 RAB16 SLP201 P0000 60002 T00670056 56016 $

KTYS 311726Z 3118/0118 VRB03KT 1SM -RA BR OVC005
  FM312000 35004KT 3SM BR OVC005
  FM010200 02004KT 3SM -RA BR OVC004
  FM011500 02006KT 4SM BR OVC010


KGSO 312013Z 22004KT 5SM -RA BR OVC004 12/11 A3007 RMK AO2 P0000 T01170111

KGSO 311721Z 3118/0118 VRB03KT 2SM -RADZ BR OVC002
  FM312200 VRB03KT 4SM BR OVC003
  FM010400 03006KT 2SM -RA BR OVC003
  FM011500 03008KT 5SM BR VCSH OVC012


KCLT 312052Z 24003KT 10SM OVC009 14/13 A3008 RMK RAB32E45 SLP184 P0000 60000 T01440128 56020

KCLT 312005Z 3120/0124 23006KT P6SM BKN009 OVC015
  TEMPO 3120/3122 SCT009 OVC015
  FM312200 22005KT P6SM OVC012
  FM010200 21003KT P6SM VCSH OVC007
  FM010600 32004KT 4SM -RA BR OVC003
  FM011300 04007KT 5SM BR OVC006


KRDU 312051Z 16005KT 3SM -RA BR BKN009 BKN020 OVC095 14/13 A3009 RMK AO2 SLP187 P0003 60009 T01440128 58013

KRDU 312005Z 3120/0118 21008KT 3SM -RA OVC006
  FM312300 VRB03KT 6SM BR OVC004
  FM010600 03006KT 3SM -RA BR OVC003
  FM011500 04006KT 3SM BR VCSH OVC006


KPOB 312055Z AUTO 00000KT 10SM OVC009 16/14 A3009 RMK AO2 SLP192 T01550139 56013

TAF COR KPOB 311809Z 3118/0124 20004KT 4800 BR SCT005 BKN008 OVC012 QNH3008INS
  BECMG 0106/0107 01010KT 6000 -DZ BR OVC004 QNH3006INS
  BECMG 0116/0117 04010KT 8000 -RA BR FEW004 BKN007 OVC012 QNH3019INS
  BECMG 0118/0119 05008KT 9999 NSW SCT006 BKN012 OVC020 QNH3020INS
  BECMG 0121/0122 05006KT 9999 FEW015 BKN020 OVC035 QNH3024INS TX17/3120Z TN07/0112Z


KFBG 312055Z AUTO 00000KT 10SM OVC009 15/15 A3008 RMK AO2 SLP189 T01540152 55012

TAF COR KFBG 311810Z 3118/0124 22006KT 9999 OVC005 QNH3011INS
  BECMG 3121/3122 22006KT 9000 -RA OVC003 QNH3010INS
  BECMG 0106/0107 32010G15KT 9999 NSW OVC003 QNH3020INS
  BECMG 0115/0116 01010G15KT 9000 -RA OVC008 QNH3022INS
  BECMG 0121/0122 04010KT 9999 NSW OVC008 QNH3024INS TX16/3120Z TN10/0110Z


KFAY 312053Z 23003KT 10SM OVC009 16/14 A3010 RMK AO2 SLP187 T01610139 55013

KFAY 311748Z 3118/0118 17004KT 3SM BR OVC003
  TEMPO 3118/3119 1/2SM FG
  FM312000 21006KT P6SM OVC008
  TEMPO 3122/0102 OVC015
  FM010600 33007KT 4SM BR VCSH OVC003
  FM011500 02008KT 4SM BR VCSH OVC007


KRWI 312053Z AUTO 00000KT 3SM -RA BR BKN007 OVC012 14/12 A3012 RMK AO2 RAE34B51 CIG 004V010 SLP198 P0002 60004 T01390122 56006

KRWI 311721Z 3118/0118 20005KT P6SM OVC006
  FM312100 21004KT 6SM -RA BR OVC004
  FM010000 VRB03KT 5SM BR OVC004
  FM010600 01005KT 3SM -RA BR OVC003
  FM011500 02008KT 3SM -RA BR OVC007


KISO 312056Z 00000KT 7SM OVC007 14/13 A3012

KISO 311725Z 3118/0118 17003KT P6SM VCSH OVC006
  FM010200 00000KT 5SM BR OVC005
  FM010900 36006KT 3SM -RA BR OVC004 AMD LTD TO CLD VIS AND WIND


KGWW 312055Z AUTO 00000KT 10SM OVC011 14/14 A3012 RMK AO2 T01420140


KGSB 312036Z 00000KT 10SM OVC010 15/15 A3009 RMK AO2A DZE1955RAB22E36 CIG 010 RWY26 SLP193 $

TAF AMD KGSB 311950Z 3119/0119 VRB06KT 9999 OVC010 QNH3005INS
  BECMG 3121/3122 VRB06KT 9999 OVC006 QNH3006INS
  BECMG 3123/3124 VRB06KT 3200 -DZ BR OVC004 QNH3007INS
  BECMG 0101/0102 VRB04KT 0800 FG OVC002 QNH3008INS
  BECMG 0109/0110 VRB06KT 2400 BR OVC003 QNH3005INS TX15/3119Z TN08/0112Z


KDPL 312055Z AUTO 00000KT 5SM BR OVC009 16/15 A3011 RMK AO2


KCTZ 312055Z AUTO 00000KT 10SM OVC011 17/17 A3011 RMK AO2 T01650165


KORF 312051Z 06012KT 2SM BR OVC002 07/07 A3013 RMK AO2 SLP202 T00720072 56009

KORF 311743Z 3118/0118 35010KT 5SM BR VCSH OVC004
  FM312200 03010KT 4SM -RA OVC005
  FM010200 01011KT 3SM -RADZ BR OVC004


KLFI 312019Z 35010KT 10SM OVC009 08/07 A3015 RMK AO2A DZB04E19 SLP216 $

TAF AMD KLFI 311915Z 3119/0124 VRB06KT 4800 BR OVC007 QNH3014INS
  TEMPO 3118/3120 BKN005
  BECMG 3119/3120 04012G18KT 4800 -RA BR OVC005 QNH3012INS
  BECMG 0100/0101 04012G18KT 2400 BR OVC002 QNH3010INS
  BECMG 0108/0109 02015G20KT 8000 -RA OVC005 QNH3012INS
  BECMG 0118/0119 36010G15KT 9999 NSW FEW013 SCT019 QNH3026INS
  BECMG 0122/0123 35012KT 9999 SCT027 QNH3028INS TX13/3121Z TN04/0118Z


KNTU 312056Z 05017KT 1/4SM FG OVC002 08/08 A3013 RMK AO2 TWR VIS 1/2 SLP206 T00830078 55007

TAF AMD KNTU 3120/0115 05010KT 6000 SHRA OVC005 640709 QNH3009INS
  TEMPO 3120/3123 0400 FG OVC002
  FM312300 03012KT 9999 OVC005 640709 QNH3008INS
  FM010600 03012G18KT 8000 -SHRA BR OVC005 640709 540009 540909 QNH3009INS
  TEMPO 0107/0113 02016G23KT 3200 -SHRA BR OVC005 T11/3119Z T04/0109Z AMD 2038 FN20051


KECG 312054Z 35004KT 10SM OVC007 13/11 A3013 RMK AO2 SLP202 T01280111 55012

KECG 311743Z 3118/0118 21006KT 4SM BR OVC004
  TEMPO 3119/3121 SCT004 OVC006
  FM312100 05009KT 4SM BR VCSH OVC004
  FM010100 01010KT 2SM -RA BR OVC003
  FM010400 02011KT 1SM -RA BR OVC003


KEWN 312054Z 11003KT 10SM BKN005 OVC013 14/13 A3012 RMK AO2 SLP198 60000 T01390133 56010

KEWN 311725Z 3118/0118 VRB03KT P6SM VCSH OVC006
  FM312100 VRB03KT P6SM VCSH OVC010
  FM010200 00000KT 5SM BR OVC004
  FM011000 02007KT 3SM -RA OVC004


KNKT 312028Z 09003KT 10SM SCT004 OVC016 14/13 A3012 RMK AO2 T01390133

TAF AMD KNKT 3119/0115 VRB06KT 9999 OVC004 QNH3015INS
  TEMPO 3118/3121 8000 -RA BR OVC002
  FM010130 VRB06KT 9999 OVC008 QNH3007INS
  BECMG 0113/0115 02008KT 3200 -RA BR OVC006 QNH3015INS T18/3121Z T10/0115Z AMD 1919Z


KILM 312053Z 10004KT 10SM OVC012 17/14 A3011 RMK AO2 SLP195 T01670139 55015

KILM 311732Z 3118/0118 20004KT P6SM OVC017
  FM010300 00000KT 4SM BR OVC006
  FM010600 VRB03KT 3SM BR OVC004
  FM011400 35008KT 5SM BR OVC007


KCAE 312018Z 23006KT 10SM BKN018 19/15 A3009 RMK AO2 T01940150

KCAE 311944Z 3120/0118 26005KT P6SM BKN015
  FM312200 24007KT P6SM SCT015 BKN035
  FM010700 VRB04KT 4SM BR BKN005 OVC015


KSSC 311955Z 25006KT 10SM BKN015 19/15 A3009 RMK AO2A SLP190 T01900145 $

TAF AMD KSSC 311940Z 3119/0122 20007KT 9999 OVC015 QNH3010INS
  BECMG 0102/0103 24003KT 2400 BR BKN010 OVC015 QNH3014INS
  TEMPO 0112/0114 0400 FG OVC002
  BECMG 0113/0114 VRB05KT 3600 -RA BR BKN010 OVC025 QNH3017INS
  BECMG 0118/0119 35005KT 9999 NSW BKN017 QNH3015INS TX20/3120Z TN12/0114Z


KMMT 312045Z 24004KT 10SM BKN018 BKN220 19/19 A3008 RMK AO2A SLP188 $

TAF AMD KMMT 311735Z 3117/0121 VRB06KT 9999 OVC010 QNH3017INS
  BECMG 3119/3120 VRB06KT 9999 OVC012 510302 QNH3010INS
  BECMG 0101/0102 VRB06KT 8000 BR OVC007 QNH3010INS
  BECMG 0118/0119 28010G15KT 9999 -SHRA BKN015 QNH3012INS TX18/3122Z TN13/0108Z


KMYR 312056Z 28006KT 10SM OVC015 19/17 A3011 RMK AO2 SLP195 P0001 60001 T01940172 56008

KMYR 311732Z 3118/0118 VRB04KT P6SM OVC012
  FM010600 VRB03KT 2SM BR OVC004
  FM011400 33007KT 4SM BR OVC003
  FM011600 01007KT P6SM OVC007


KCHS 312008Z 29007KT 10SM OVC009 19/17 A3013 RMK AO2 T01940167

TAF COR KCHS 311743Z 3118/0118 24004KT P6SM OVC008
  TEMPO 3118/3121 SCT008 BKN012
  FM312100 24006KT P6SM SCT012 BKN020
  FM010300 VRB03KT 4SM BR OVC006
  FM010700 VRB03KT 1 1/2SM BR OVC003
  FM011500 31004KT P6SM OVC004


KSAV 312053Z 29005KT 10SM BKN020 OVC090 23/17 A3012 RMK AO2 SLP200 T02330172 56017

KSAV 311733Z 3118/0118 24005KT P6SM SCT008 BKN018
  FM010400 VRB03KT P6SM VCSH SCT003 OVC006
  TEMPO 0105/0108 5SM -SHRA BR OVC003
  FM010800 VRB03KT 1SM BR OVC003
  FM011500 29004KT P6SM OVC005


KSVN 312055Z AUTO 27007KT 10SM FEW065 SCT080 23/17 A3010 RMK AO2 SLP196 T02290173 55016 $

TAF KSVN 311700Z 3117/0123 31004KT 9999 SCT007 OVC015 QNH3012INS
  BECMG 0100/0101 VRB06KT 9999 BKN006 QNH3011INS
  BECMG 0110/0111 VRB06KT 3200 BR OVC003 QNH3012INS
  BECMG 0114/0115 29009KT 9999 NSW SCT005 BKN010 QNH3019INS
  BECMG 0117/0118 29010G15KT 9999 BKN015 QNH3014INS TX22/0120Z TN17/0108Z


KDCA 312052Z 02005KT 6SM -RA BR SCT013 OVC021 04/02 A3021 RMK AO2 RAB45 SLP229 P0000 60004 T00390022 57008

KDCA 311908Z 3119/0124 35005KT 4SM -RA FEW010 BKN020 OVC035
  FM312200 35006KT P6SM SCT020 OVC035
  FM010300 03003KT P6SM SCT020 OVC035
  FM011100 35008G16KT P6SM BKN020 OVC035
  FM011500 34007KT P6SM SCT130
  FM012300 35006KT P6SM FEW250


KADW 312055Z AUTO 06006KT 10SM BKN007 OVC012 03/03 A3017 RMK AO2 DZE1958UPB39E43 SLP225 P0000 60004 T00260025 56009 $

TAF AMD KADW 312005Z 3120/0123 36010KT 9999 SCT006 BKN015 OVC040 620703 QNH3013INS
  TEMPO 3120/3122 BKN006
  BECMG 0102/0103 36008KT 9000 -RA BR BKN020 OVC040 620703 QNH3018INS
  BECMG 0108/0109 36010KT 8000 -SN BR SCT010 OVC020 650209 QNH3019INS
  BECMG 0110/0111 36012KT 4800 -SN BR SCT005 OVC010 650109 QNH3018INS
  BECMG 0112/0113 35010G15KT 9999 NSW SCT010 BKN050 QNH3023INS TX05/3120Z TNM01/0111Z